createdAt,value
2019-05-16T00:02:01.275Z,6.35
2019-05-16T00:04:31.484Z,6.55
2019-05-16T00:07:01.119Z,7.33
2019-05-16T00:09:30.723Z,6.53
2019-05-16T00:12:00.273Z,7.08
2019-05-16T00:14:30.005Z,6.40
2019-05-16T00:17:00.559Z,7.37
2019-05-16T00:19:30.125Z,6.67
2019-05-16T00:21:59.931Z,6.62
2019-05-16T00:24:29.475Z,7.00
2019-05-16T00:26:59.046Z,7.42
2019-05-16T00:29:28.567Z,7.60
2019-05-16T00:31:58.149Z,7.40
2019-05-16T00:34:28.038Z,7.08
2019-05-16T00:36:58.301Z,7.42
2019-05-16T00:39:28.200Z,6.97
2019-05-16T00:41:58.489Z,7.20
2019-05-16T00:44:28.307Z,7.50
2019-05-16T00:46:58.051Z,6.50
2019-05-16T00:49:28.125Z,7.28
2019-05-16T00:51:58.455Z,7.28
2019-05-16T00:54:28.162Z,7.53
2019-05-16T00:56:57.887Z,7.12
2019-05-16T00:59:27.683Z,7.83
2019-05-16T01:01:58.778Z,7.78
2019-05-16T01:04:28.862Z,7.67
2019-05-16T01:07:01.514Z,7.40
2019-05-16T01:09:29.787Z,7.75
2019-05-16T01:11:59.332Z,7.50
2019-05-16T01:14:28.917Z,7.45
2019-05-16T01:16:58.497Z,7.95
2019-05-16T01:19:29.127Z,8.13
2019-05-16T01:21:59.121Z,8.50
2019-05-16T01:24:29.260Z,9.00
2019-05-16T01:26:59.493Z,8.55
2019-05-16T01:29:29.178Z,7.75
2019-05-16T01:31:59.124Z,8.65
2019-05-16T01:34:29.056Z,8.88
2019-05-16T01:36:59.194Z,8.08
2019-05-16T01:39:29.262Z,9.40
2019-05-16T01:41:59.340Z,8.37
2019-05-16T01:44:28.927Z,8.93
2019-05-16T01:46:58.694Z,8.13
2019-05-16T01:49:28.741Z,9.43
2019-05-16T01:51:58.845Z,9.17
2019-05-16T01:54:28.410Z,8.57
2019-05-16T01:56:59.431Z,8.93
2019-05-16T01:59:29.603Z,8.90
2019-05-16T02:02:00.908Z,8.95
2019-05-16T02:04:31.080Z,9.40
2019-05-16T02:07:00.640Z,9.40
2019-05-16T02:09:30.203Z,9.95
2019-05-16T02:12:00.668Z,9.60
2019-05-16T02:14:31.387Z,9.68
2019-05-16T02:17:00.913Z,10.43
2019-05-16T02:19:30.715Z,9.95
2019-05-16T02:22:00.275Z,10.05
2019-05-16T02:24:29.824Z,10.78
2019-05-16T02:26:59.400Z,10.30
2019-05-16T02:29:29.848Z,10.35
2019-05-16T02:32:02.085Z,10.25
2019-05-16T02:34:30.976Z,10.53
2019-05-16T02:37:18.889Z,11.05
2019-05-16T02:39:31.899Z,10.45
2019-05-16T02:42:01.879Z,9.75
2019-05-16T02:44:32.242Z,10.83
2019-05-16T02:47:01.980Z,11.10
2019-05-16T02:49:34.097Z,9.75
2019-05-16T02:52:03.741Z,10.45
2019-05-16T02:54:33.729Z,10.80
2019-05-16T02:57:03.809Z,10.58
2019-05-16T02:59:33.845Z,9.97
2019-05-16T03:02:03.436Z,10.43
2019-05-16T03:04:32.996Z,9.80
2019-05-16T03:07:02.569Z,10.18
2019-05-16T03:09:33.331Z,9.80
2019-05-16T03:12:03.099Z,9.55
2019-05-16T03:14:34.194Z,9.75
2019-05-16T03:17:04.879Z,10.68
2019-05-16T03:19:37.002Z,10.20
2019-05-16T03:22:07.160Z,10.40
2019-05-16T03:24:37.785Z,10.32
2019-05-16T03:27:10.639Z,10.32
2019-05-16T03:29:41.591Z,10.58
2019-05-16T03:32:14.110Z,10.68
2019-05-16T03:34:43.945Z,10.28
2019-05-16T03:37:14.314Z,10.35
2019-05-16T03:39:44.311Z,10.75
2019-05-16T03:42:15.089Z,10.72
2019-05-16T03:44:44.994Z,10.17
2019-05-16T03:47:14.572Z,9.78
2019-05-16T03:49:44.161Z,10.78
2019-05-16T03:52:14.078Z,10.93
2019-05-16T03:54:43.948Z,12.07
2019-05-16T03:57:13.864Z,10.85
2019-05-16T03:59:43.421Z,10.32
2019-05-16T04:02:12.983Z,10.75
2019-05-16T04:04:42.575Z,10.75
2019-05-16T04:07:12.371Z,10.63
2019-05-16T04:09:41.951Z,11.03
2019-05-16T04:12:11.531Z,9.68
2019-05-16T04:14:41.513Z,10.53
2019-05-16T04:17:11.577Z,10.40
2019-05-16T04:19:41.698Z,10.07
2019-05-16T04:22:15.506Z,10.00
2019-05-16T04:24:45.200Z,10.48
2019-05-16T04:27:14.755Z,10.28
2019-05-16T04:29:44.711Z,9.83
2019-05-16T04:32:14.422Z,10.10
2019-05-16T04:34:44.030Z,10.05
2019-05-16T04:37:13.752Z,10.23
2019-05-16T04:39:53.397Z,9.15
2019-05-16T04:42:23.998Z,9.08
2019-05-16T04:44:53.617Z,9.05
2019-05-16T04:47:23.798Z,9.48
2019-05-16T04:49:53.563Z,9.90
2019-05-16T04:52:23.346Z,9.88
2019-05-16T04:54:52.951Z,8.95
2019-05-16T04:57:22.528Z,10.30
2019-05-16T05:00:02.204Z,9.78
2019-05-16T05:02:31.077Z,9.40
2019-05-16T05:05:02.791Z,9.73
2019-05-16T05:07:32.394Z,11.18
2019-05-16T05:10:02.268Z,10.25
2019-05-16T05:12:32.332Z,10.05
2019-05-16T05:15:02.063Z,9.73
2019-05-16T05:17:31.715Z,9.68
2019-05-16T05:20:01.394Z,11.15
2019-05-16T05:22:31.217Z,10.50
2019-05-16T05:25:00.775Z,10.08
2019-05-16T05:27:30.476Z,10.00
2019-05-16T05:30:10.289Z,10.13
2019-05-16T05:32:41.417Z,10.55
2019-05-16T05:35:11.666Z,10.48
2019-05-16T05:37:42.238Z,10.48
2019-05-16T05:40:20.094Z,10.98
2019-05-16T05:42:52.873Z,10.65
2019-05-16T05:45:23.551Z,11.93
2019-05-16T05:48:00.159Z,11.28
2019-05-16T05:50:31.428Z,12.18
2019-05-16T05:53:02.541Z,12.20
2019-05-16T05:55:33.224Z,12.90
2019-05-16T05:58:15.278Z,12.58
2019-05-16T06:00:51.760Z,12.15
2019-05-16T06:03:24.432Z,13.05
2019-05-16T06:06:01.308Z,12.33
2019-05-16T06:08:31.817Z,12.85
2019-05-16T06:11:04.081Z,12.68
2019-05-16T06:13:50.050Z,13.20
2019-05-16T06:16:21.010Z,13.25
2019-05-16T06:18:51.499Z,13.55
2019-05-16T06:21:22.303Z,13.68
2019-05-16T06:23:52.735Z,13.68
2019-05-16T06:26:27.458Z,14.60
2019-05-16T06:29:04.237Z,13.95
2019-05-16T06:31:34.802Z,15.05
2019-05-16T06:34:14.983Z,13.70
2019-05-16T06:36:42.866Z,14.23
2019-05-16T06:42:40.488Z,14.18
2019-05-16T06:45:11.115Z,13.77
2019-05-16T06:47:40.697Z,13.98
2019-05-16T06:50:11.397Z,13.75
2019-05-16T06:55:10.682Z,12.93
2019-05-16T06:57:41.063Z,12.03
2019-05-16T07:00:11.194Z,12.30
2019-05-16T07:02:41.116Z,13.47
2019-05-16T07:05:11.163Z,12.13
2019-05-16T07:07:42.939Z,12.68
2019-05-16T07:10:13.241Z,12.55
2019-05-16T07:12:43.365Z,11.93
2019-05-16T07:15:13.253Z,12.13
2019-05-16T07:17:43.082Z,12.33
2019-05-16T07:20:13.027Z,11.50
2019-05-16T07:22:43.010Z,12.03
2019-05-16T07:25:13.620Z,11.48
2019-05-16T07:27:43.410Z,10.70
2019-05-16T07:30:13.135Z,11.45
2019-05-16T07:32:43.405Z,10.63
2019-05-16T07:35:13.139Z,11.57
2019-05-16T07:37:42.743Z,11.25
2019-05-16T07:40:19.615Z,11.12
2019-05-16T07:42:43.668Z,10.82
2019-05-16T07:45:13.569Z,9.93
2019-05-16T07:47:43.281Z,9.10
2019-05-16T07:50:12.964Z,8.60
2019-05-16T07:52:42.627Z,8.88
2019-05-16T07:55:12.424Z,8.95
2019-05-16T07:57:42.077Z,8.50
2019-05-16T08:00:11.793Z,9.03
2019-05-16T08:02:41.464Z,9.83
2019-05-16T08:05:11.524Z,9.63
2019-05-16T08:07:41.415Z,9.93
2019-05-16T08:10:11.365Z,9.23
2019-05-16T08:12:41.431Z,9.60
2019-05-16T08:15:11.115Z,8.85
2019-05-16T08:17:45.694Z,8.33
2019-05-16T08:20:15.363Z,8.60
2019-05-16T08:22:45.973Z,9.15
2019-05-16T08:25:16.006Z,8.45
2019-05-16T08:27:46.153Z,8.25
2019-05-16T08:30:16.070Z,7.78
2019-05-16T08:32:45.639Z,8.23
2019-05-16T08:35:16.625Z,7.78
2019-05-16T08:40:16.810Z,8.13
2019-05-16T08:42:46.456Z,7.60
2019-05-16T08:45:16.060Z,8.03
2019-05-16T08:47:46.926Z,7.75
2019-05-16T08:52:45.580Z,7.85
2019-05-16T08:55:15.579Z,7.45
2019-05-16T08:57:45.683Z,7.20
2019-05-16T09:00:16.956Z,6.95
2019-05-16T09:02:46.528Z,7.30
2019-05-16T09:05:16.130Z,7.87
2019-05-16T09:07:45.796Z,7.47
2019-05-16T09:10:45.896Z,7.50
2019-05-16T09:12:47.839Z,7.60
2019-05-16T09:15:17.542Z,8.00
2019-05-16T09:17:47.615Z,7.10
2019-05-16T09:20:17.829Z,7.55
2019-05-16T09:22:48.132Z,7.45
2019-05-16T09:25:18.995Z,7.60
2019-05-16T09:27:48.851Z,7.78
2019-05-16T09:30:29.499Z,7.97
2019-05-16T09:33:00.091Z,7.50
2019-05-16T09:35:31.806Z,7.22
2019-05-16T09:38:02.257Z,7.30
2019-05-16T09:40:32.673Z,7.17
2019-05-16T09:43:02.487Z,7.60
2019-05-16T09:45:32.244Z,7.40
2019-05-16T09:48:02.763Z,7.00
2019-05-16T09:50:33.627Z,7.40
2019-05-16T09:55:32.408Z,7.28
2019-05-16T09:58:02.442Z,7.60
2019-05-16T10:00:32.040Z,7.33
2019-05-16T10:03:01.683Z,7.12
2019-05-16T10:05:32.162Z,7.20
2019-05-16T10:08:02.366Z,7.15
2019-05-16T10:10:32.515Z,7.03
2019-05-16T10:13:03.140Z,7.65
2019-05-16T10:15:33.338Z,7.05
2019-05-16T10:18:07.345Z,7.17
2019-05-16T10:20:36.672Z,6.33
2019-05-16T10:23:14.402Z,6.58
2019-05-16T10:25:38.565Z,7.20
2019-05-16T10:28:08.572Z,7.15
2019-05-16T10:30:38.452Z,6.87
2019-05-16T10:33:08.373Z,6.80
2019-05-16T10:35:38.140Z,7.00
2019-05-16T10:38:07.716Z,7.25
2019-05-16T10:40:43.285Z,7.62
2019-05-16T10:43:13.084Z,7.80
2019-05-16T10:45:42.684Z,7.50
2019-05-16T10:48:12.422Z,7.67
2019-05-16T10:50:42.673Z,7.58
2019-05-16T10:53:28.377Z,7.65
2019-05-16T10:55:43.939Z,7.75
2019-05-16T10:58:35.512Z,8.55
2019-05-16T11:01:22.564Z,8.53
2019-05-16T11:03:24.688Z,8.88
2019-05-16T11:06:05.004Z,8.63
2019-05-16T11:08:28.235Z,8.88
2019-05-16T11:10:59.096Z,8.63
2019-05-16T11:13:29.081Z,8.08
2019-05-16T11:15:59.003Z,8.37
2019-05-16T11:18:34.708Z,8.03
2019-05-16T11:21:04.562Z,7.45
2019-05-16T11:23:36.589Z,7.55
2019-05-16T11:26:06.067Z,7.25
2019-05-16T11:28:40.306Z,8.37
2019-05-16T11:31:09.978Z,7.97
2019-05-16T11:33:39.653Z,7.28
2019-05-16T11:36:12.677Z,9.23
2019-05-16T11:38:40.603Z,7.92
2019-05-16T11:41:10.257Z,8.18
2019-05-16T11:43:39.966Z,8.53
2019-05-16T11:46:09.530Z,8.85
2019-05-16T11:48:39.404Z,8.85
2019-05-16T11:51:09.023Z,8.65
2019-05-16T11:53:38.600Z,8.00
2019-05-16T11:56:08.662Z,8.30
2019-05-16T11:58:38.353Z,8.13
2019-05-16T12:01:08.390Z,8.13
2019-05-16T12:03:38.018Z,8.48
2019-05-16T12:06:10.603Z,8.53
2019-05-16T12:08:39.039Z,7.70
2019-05-16T12:11:08.617Z,8.05
2019-05-16T12:13:38.212Z,8.03
2019-05-16T12:16:07.967Z,9.43
2019-05-16T12:18:38.936Z,9.33
2019-05-16T12:21:09.611Z,8.90
2019-05-16T12:23:39.166Z,9.30
2019-05-16T12:26:08.743Z,8.75
2019-05-16T12:28:39.311Z,8.95
2019-05-16T12:31:09.994Z,8.28
2019-05-16T12:33:40.617Z,8.25
2019-05-16T12:36:10.187Z,7.33
2019-05-16T12:38:40.049Z,8.08
2019-05-16T12:41:09.931Z,8.30
2019-05-16T12:43:48.719Z,8.73
2019-05-16T12:46:16.028Z,8.38
2019-05-16T12:48:47.432Z,7.80
2019-05-16T12:51:19.997Z,8.80
2019-05-16T12:53:49.994Z,8.68
2019-05-16T12:56:20.307Z,8.77
2019-05-16T12:58:50.932Z,8.23
2019-05-16T13:01:21.308Z,8.63
2019-05-16T13:03:51.154Z,8.50
2019-05-16T13:06:20.709Z,8.60
2019-05-16T13:08:53.396Z,8.63
2019-05-16T13:11:21.525Z,7.78
2019-05-16T13:14:05.547Z,8.98
2019-05-16T13:16:22.400Z,9.00
2019-05-16T13:18:56.312Z,9.05
2019-05-16T13:21:30.400Z,8.65
2019-05-16T13:23:59.945Z,9.35
2019-05-16T13:26:29.494Z,9.43
2019-05-16T13:28:59.052Z,9.23
2019-05-16T13:31:28.934Z,9.43
2019-05-16T13:33:58.872Z,9.00
2019-05-16T13:36:28.585Z,9.30
2019-05-16T13:38:58.126Z,9.38
2019-05-16T13:41:28.089Z,9.03
2019-05-16T13:43:57.635Z,8.30
2019-05-16T13:46:27.242Z,8.98
2019-05-16T13:48:58.881Z,9.13
2019-05-16T13:51:28.611Z,13.60
2019-05-16T13:54:09.425Z,12.93
2019-05-16T13:56:39.087Z,11.70
2019-05-16T13:59:09.427Z,10.28
2019-05-16T14:01:39.063Z,10.25
2019-05-16T14:04:10.008Z,10.03
2019-05-16T14:06:41.924Z,8.93
2019-05-16T14:09:12.544Z,8.78
2019-05-16T14:11:47.796Z,9.53
2019-05-16T14:14:33.205Z,9.40
2019-05-16T14:16:49.363Z,8.83
2019-05-16T14:19:22.552Z,8.73
2019-05-16T14:21:53.477Z,9.08
2019-05-16T14:27:08.782Z,9.23
2019-05-16T14:29:39.896Z,9.13
2019-05-16T14:32:10.804Z,8.75
2019-05-16T14:34:42.200Z,8.45
2019-05-16T14:37:11.816Z,9.35
2019-05-16T14:39:41.394Z,8.75
2019-05-16T14:42:10.990Z,8.75
2019-05-16T14:45:03.742Z,8.65
2019-05-16T14:47:18.756Z,8.80
2019-05-16T14:49:49.107Z,10.13
2019-05-16T14:52:19.485Z,9.05
2019-05-16T14:54:57.591Z,8.63
2019-05-16T14:57:27.705Z,8.58
2019-05-16T14:59:57.680Z,9.27
2019-05-16T15:02:28.057Z,9.00
2019-05-16T15:04:58.463Z,8.20
2019-05-16T15:07:28.842Z,8.85
2019-05-16T15:09:59.879Z,9.35
2019-05-16T15:12:29.669Z,9.48
2019-05-16T15:15:15.757Z,9.60
2019-05-16T15:17:34.821Z,9.25
2019-05-16T15:20:18.198Z,12.63
2019-05-16T15:22:48.283Z,11.22
2019-05-16T15:25:26.663Z,11.80
2019-05-16T15:27:57.572Z,14.07
2019-05-16T15:30:27.893Z,12.75
2019-05-16T15:32:57.523Z,10.53
2019-05-16T15:35:41.843Z,10.45
2019-05-16T15:38:11.507Z,9.63
2019-05-16T15:40:41.516Z,9.85
2019-05-16T15:43:11.075Z,9.57
2019-05-16T15:45:44.276Z,9.45
2019-05-16T15:48:13.448Z,9.03
2019-05-16T15:50:43.582Z,9.00
2019-05-16T15:53:14.529Z,9.50
2019-05-16T15:55:46.908Z,9.03
2019-05-16T15:58:18.144Z,9.33
2019-05-16T16:00:54.323Z,9.13
2019-05-16T16:03:24.038Z,9.78
2019-05-16T16:05:56.668Z,10.00
2019-05-16T16:08:29.756Z,9.83
2019-05-16T16:10:59.523Z,9.78
2019-05-16T16:13:30.423Z,9.65
2019-05-16T16:18:41.845Z,10.90
2019-05-16T16:21:16.785Z,11.38
2019-05-16T16:23:54.609Z,12.78
2019-05-16T16:26:26.872Z,11.55
2019-05-16T16:28:59.302Z,12.07
2019-05-16T16:31:30.257Z,12.03
2019-05-16T16:34:01.624Z,11.75
2019-05-16T16:36:32.827Z,11.53
2019-05-16T16:39:07.531Z,12.73
2019-05-16T16:41:47.775Z,11.97
2019-05-16T16:44:18.350Z,12.58
2019-05-16T16:46:49.550Z,12.43
2019-05-16T16:49:42.786Z,11.22
2019-05-16T16:52:16.767Z,12.70
2019-05-16T16:54:48.807Z,12.18
2019-05-16T16:57:20.001Z,13.00
2019-05-16T16:59:49.961Z,12.05
2019-05-16T17:02:20.250Z,11.83
2019-05-16T17:04:51.904Z,12.40
2019-05-16T17:07:23.501Z,12.13
2019-05-16T17:09:56.240Z,14.87
2019-05-16T17:12:33.827Z,13.68
2019-05-16T17:15:08.521Z,12.30
2019-05-16T17:17:38.648Z,13.43
2019-05-16T17:20:11.833Z,12.33
2019-05-16T17:22:41.737Z,13.03
2019-05-16T17:25:18.853Z,13.43
2019-05-16T17:27:48.764Z,13.38
2019-05-16T17:30:18.561Z,14.35
2019-05-16T17:32:48.363Z,13.75
2019-05-16T17:35:31.171Z,12.47
2019-05-16T17:38:01.562Z,13.55
2019-05-16T17:40:31.328Z,13.65
2019-05-16T17:43:19.711Z,13.55
2019-05-16T17:45:49.768Z,12.73
2019-05-16T17:48:27.245Z,25.47
2019-05-16T17:50:56.967Z,22.55
2019-05-16T17:53:28.664Z,18.15
2019-05-16T17:55:58.269Z,15.65
2019-05-16T17:58:33.820Z,13.93
2019-05-16T18:01:06.615Z,14.10
2019-05-16T18:03:37.425Z,12.55
2019-05-16T18:06:07.175Z,12.18
2019-05-16T18:08:37.739Z,12.65
2019-05-16T18:11:07.499Z,12.07
2019-05-16T18:13:38.104Z,11.48
2019-05-16T18:16:08.864Z,12.90
2019-05-16T18:18:38.490Z,12.88
2019-05-16T18:21:08.265Z,13.35
2019-05-16T18:23:44.374Z,13.08
2019-05-16T18:26:14.172Z,12.78
2019-05-16T18:28:47.495Z,13.58
2019-05-16T18:31:17.672Z,13.60
2019-05-16T18:33:47.938Z,13.53
2019-05-16T18:36:19.075Z,12.90
2019-05-16T18:38:49.324Z,13.78
2019-05-16T18:41:24.522Z,13.25
2019-05-16T18:43:56.479Z,13.53
2019-05-16T18:46:27.880Z,13.10
2019-05-16T18:48:58.099Z,14.18
2019-05-16T18:51:27.974Z,14.40
2019-05-16T18:53:58.012Z,14.87
2019-05-16T18:56:28.498Z,13.93
2019-05-16T18:58:58.389Z,14.87
2019-05-16T19:01:28.324Z,13.88
2019-05-16T19:03:58.977Z,14.47
2019-05-16T19:06:29.276Z,13.88
2019-05-16T19:08:59.427Z,12.73
2019-05-16T19:11:29.780Z,13.85
2019-05-16T19:14:10.279Z,13.00
2019-05-16T19:16:40.562Z,13.60
2019-05-16T19:19:28.129Z,13.70
2019-05-16T19:21:59.536Z,14.20
2019-05-16T19:24:31.116Z,13.45
2019-05-16T19:27:01.438Z,13.25
2019-05-16T19:29:31.703Z,13.70
2019-05-16T19:32:01.668Z,12.73
2019-05-16T19:34:32.763Z,14.90
2019-05-16T19:37:03.276Z,16.65
2019-05-16T19:39:33.275Z,15.32
2019-05-16T19:42:06.539Z,13.95
2019-05-16T19:44:42.294Z,14.43
2019-05-16T19:47:18.782Z,13.35
2019-05-16T19:49:56.899Z,13.88
2019-05-16T19:52:27.024Z,13.28
2019-05-16T19:54:57.056Z,13.53
2019-05-16T19:57:26.820Z,18.37
2019-05-16T20:00:17.195Z,13.88
2019-05-16T20:03:17.179Z,13.90
2019-05-16T20:05:49.547Z,13.03
2019-05-16T20:08:29.284Z,13.72
2019-05-16T20:11:17.390Z,13.35
2019-05-16T20:13:50.533Z,13.45
2019-05-16T20:16:40.200Z,13.20
2019-05-16T20:19:12.381Z,13.77
2019-05-16T20:21:48.608Z,14.15
2019-05-16T20:24:32.462Z,14.40
2019-05-16T20:27:19.499Z,12.93
2019-05-16T20:29:50.505Z,13.88
2019-05-16T20:32:21.901Z,13.72
2019-05-16T20:35:03.814Z,13.75
2019-05-16T20:37:49.058Z,13.78
2019-05-16T20:40:32.802Z,14.45
2019-05-16T20:43:18.401Z,16.57
2019-05-16T20:45:56.831Z,15.63
2019-05-16T20:48:28.053Z,15.00
2019-05-16T20:54:14.757Z,13.85
2019-05-16T20:56:57.251Z,13.10
2019-05-16T20:59:28.658Z,14.25
2019-05-16T21:02:01.679Z,14.68
2019-05-16T21:04:31.712Z,14.18
2019-05-16T21:07:17.254Z,14.93
2019-05-16T21:09:59.201Z,14.85
2019-05-16T21:12:29.373Z,15.03
2019-05-16T21:15:06.514Z,14.38
2019-05-16T21:17:43.590Z,14.30
2019-05-16T21:20:14.195Z,14.40
2019-05-16T21:22:47.021Z,13.78
2019-05-16T21:25:18.879Z,14.10
2019-05-16T21:27:57.322Z,14.83
2019-05-16T21:30:28.865Z,14.18
2019-05-16T21:32:59.096Z,15.45
2019-05-16T21:35:29.295Z,15.35
2019-05-16T21:38:00.541Z,15.18
2019-05-16T21:40:31.414Z,14.85
2019-05-16T21:45:29.961Z,15.65
2019-05-16T21:47:59.936Z,14.70
2019-05-16T21:50:29.564Z,14.70
2019-05-16T21:52:59.127Z,15.43
2019-05-16T21:55:30.043Z,14.23
2019-05-16T21:58:00.442Z,14.75
2019-05-16T22:00:37.467Z,14.78
2019-05-16T22:03:08.309Z,15.55
2019-05-16T22:05:37.998Z,15.20
2019-05-16T22:08:11.576Z,15.03
2019-05-16T22:10:39.971Z,15.05
2019-05-16T22:13:11.137Z,15.48
2019-05-16T22:15:41.968Z,15.63
2019-05-16T22:18:13.258Z,15.88
2019-05-16T22:20:43.968Z,15.70
2019-05-16T22:23:13.511Z,16.12
2019-05-16T22:25:43.467Z,15.58
2019-05-16T22:28:34.207Z,16.47
2019-05-16T22:31:03.955Z,16.67
2019-05-16T22:33:33.480Z,16.02
2019-05-16T22:36:03.351Z,16.95
2019-05-16T22:38:32.899Z,15.48
2019-05-16T22:41:02.580Z,16.25
2019-05-16T22:43:32.481Z,15.98
2019-05-16T22:46:02.586Z,17.30
2019-05-16T22:48:32.507Z,18.37
2019-05-16T22:51:02.092Z,17.02
2019-05-16T22:53:31.780Z,17.23
2019-05-16T22:56:01.528Z,17.48
2019-05-16T22:58:31.151Z,18.70
2019-05-16T23:01:01.273Z,18.00
2019-05-16T23:03:31.858Z,17.25
2019-05-16T23:06:01.435Z,18.42
2019-05-16T23:08:31.023Z,19.45
2019-05-16T23:11:00.573Z,18.80
2019-05-16T23:13:30.497Z,19.00
2019-05-16T23:16:00.384Z,20.30
2019-05-16T23:18:30.095Z,20.35
2019-05-16T23:20:59.716Z,19.82
2019-05-16T23:23:29.636Z,20.80
2019-05-16T23:25:59.307Z,20.30
2019-05-16T23:28:28.876Z,20.80
2019-05-16T23:30:58.583Z,20.72
2019-05-16T23:33:28.155Z,21.15
2019-05-16T23:35:57.726Z,20.88
2019-05-16T23:38:27.705Z,21.05
2019-05-16T23:43:28.444Z,20.23
2019-05-16T23:45:58.043Z,20.60
2019-05-16T23:48:27.643Z,21.20
2019-05-16T23:50:57.169Z,21.48
2019-05-16T23:53:27.687Z,21.05
2019-05-16T23:55:57.211Z,20.95
2019-05-16T23:58:26.886Z,19.98
